Time;durP1;ratioP1;P1;durP2;ratioP2;P2;SDS_P1;SDS_P2;PMS_P1;PMS_P2;Temp;Humidity;BMP_temperature;BMP_pressure;BME280_temperature;BME280_humidity;BME280_pressure;Samples;Min_cycle;Max_cycle;Signal;HPM_P1;HPM_P2
2022/09/19 00:00:40;;;;;;;1.25;0.80;;;;;;;;;;5015837;28;20037;-83
2022/09/19 00:03:06;;;;;;;1.75;0.80;;;;;;;;;;5016809;28;20034;-84
2022/09/19 00:05:31;;;;;;;2.85;0.80;;;;;;;;;;5016313;28;20092;-83
2022/09/19 00:07:56;;;;;;;0.82;0.80;;;;;;;;;;5015574;28;20120;-83
2022/09/19 00:10:22;;;;;;;2.83;0.98;;;;;;;;;;5015228;28;20483;-83
2022/09/19 00:12:48;;;;;;;2.10;1.10;;;;;;;;;;5015737;28;20037;-83
2022/09/19 00:15:13;;;;;;;2.92;0.70;;;;;;;;;;5015226;28;20101;-83
2022/09/19 00:17:39;;;;;;;1.65;0.90;;;;;;;;;;5016492;28;20034;-83
2022/09/19 00:20:05;;;;;;;2.03;0.80;;;;;;;;;;5015029;28;20048;-83
2022/09/19 00:22:32;;;;;;;3.25;0.82;;;;;;;;;;5016747;28;20038;-83
2022/09/19 00:24:58;;;;;;;1.38;0.70;;;;;;;;;;5015140;28;20108;-83
2022/09/19 00:27:25;;;;;;;1.45;0.70;;;;;;;;;;5016408;28;20049;-83
2022/09/19 00:29:52;;;;;;;1.10;0.70;;;;;;;;;;5015174;28;20447;-83
2022/09/19 00:32:20;;;;;;;2.83;0.60;;;;;;;;;;5015605;28;20363;-83
2022/09/19 00:34:48;;;;;;;0.93;0.68;;;;;;;;;;5015428;28;20091;-83
2022/09/19 00:37:16;;;;;;;0.70;0.50;;;;;;;;;;5015336;28;20394;-83
2022/09/19 00:39:41;;;;;;;0.55;0.47;;;;;;;;;;5014373;28;20034;-83
2022/09/19 00:42:19;;;;;;;0.50;0.47;;;;;;;;;;5014983;28;20033;-83
2022/09/19 00:44:45;;;;;;;0.40;0.40;;;;;;;;;;5014479;28;20038;-83
2022/09/19 00:47:18;;;;;;;0.80;0.70;;;;;;;;;;5014749;28;20076;-83
2022/09/19 00:49:47;;;;;;;0.98;0.60;;;;;;;;;;5014912;28;20117;-83
2022/09/19 00:52:27;;;;;;;4.20;0.70;;;;;;;;;;5015876;28;20042;-83
2022/09/19 00:54:54;;;;;;;1.60;0.57;;;;;;;;;;5023964;28;20052;-83
2022/09/19 00:57:21;;;;;;;1.85;0.52;;;;;;;;;;5024931;28;20041;-82
2022/09/19 00:59:48;;;;;;;1.15;0.60;;;;;;;;;;5025997;28;20037;-83
2022/09/19 01:02:17;;;;;;;1.02;0.60;;;;;;;;;;5025101;28;20095;-83
2022/09/19 01:04:43;;;;;;;1.05;0.65;;;;;;;;;;5008950;28;20172;-84
2022/09/19 01:07:21;;;;;;;2.08;0.70;;;;;;;;;;5025074;28;20033;-83
2022/09/19 01:09:53;;;;;;;1.60;0.77;;;;;;;;;;5026800;28;20034;-84
2022/09/19 01:12:54;;;;;;;1.00;0.70;;;;;;;;;;5025629;28;20153;-84
2022/09/19 01:15:24;;;;;;;0.68;0.65;;;;;;;;;;4946091;29;20071;-83
2022/09/19 01:17:59;;;;;;;2.67;0.70;;;;;;;;;;5008380;28;20041;-84
2022/09/19 01:20:24;;;;;;;1.52;0.80;;;;;;;;;;5024896;28;20030;-84
2022/09/19 01:22:59;;;;;;;1.45;0.77;;;;;;;;;;5024779;28;20088;-83
2022/09/19 01:25:31;;;;;;;1.80;0.70;;;;;;;;;;5024607;28;20048;-83
2022/09/19 01:28:08;;;;;;;1.38;0.70;;;;;;;;;;5025729;28;20029;-84
2022/09/19 01:31:16;;;;;;;1.35;0.70;;;;;;;;;;5024801;28;20049;-84
2022/09/19 01:33:39;;;;;;;1.23;0.70;;;;;;;;;;5025386;28;20557;-83
2022/09/19 01:36:07;;;;;;;1.08;0.75;;;;;;;;;;5024448;28;20045;-84
2022/09/19 01:38:38;;;;;;;0.50;0.50;;;;;;;;;;5025976;28;20058;-84
2022/09/19 01:41:08;;;;;;;1.38;0.70;;;;;;;;;;5025055;28;20037;-82
2022/09/19 01:43:34;;;;;;;1.70;0.70;;;;;;;;;;5025169;28;20057;-83
2022/09/19 01:46:07;;;;;;;1.05;0.70;;;;;;;;;;5024516;28;20022;-83
2022/09/19 01:48:53;;;;;;;1.70;0.80;;;;;;;;;;5024819;28;20057;-83
2022/09/19 01:51:37;;;;;;;0.70;0.70;;;;;;;;;;5025869;28;20033;-82
2022/09/19 01:54:06;;;;;;;2.25;0.80;;;;;;;;;;5023887;28;20061;-83
2022/09/19 01:57:43;;;;;;;0.93;0.70;;;;;;;;;;5025256;28;20034;-83
2022/09/19 02:00:16;;;;;;;2.33;0.80;;;;;;;;;;4945889;29;20123;-82
2022/09/19 02:03:07;;;;;;;3.58;0.85;;;;;;;;;;4945439;29;20052;-82
2022/09/19 02:05:50;;;;;;;0.90;0.80;;;;;;;;;;5010956;28;20041;-83
2022/09/19 02:08:23;;;;;;;3.10;0.90;;;;;;;;;;5026750;28;20058;-82
2022/09/19 02:11:19;;;;;;;1.38;0.90;;;;;;;;;;5026721;28;20518;-82
2022/09/19 02:13:54;;;;;;;2.13;1.00;;;;;;;;;;5012333;28;20099;-82
2022/09/19 02:16:45;;;;;;;3.00;0.80;;;;;;;;;;5028219;28;20132;-83
2022/09/19 02:19:40;;;;;;;0.65;0.65;;;;;;;;;;5028024;28;20061;-84
2022/09/19 02:22:10;;;;;;;1.20;0.80;;;;;;;;;;5028058;28;20038;-83
2022/09/19 02:24:38;;;;;;;1.05;0.80;;;;;;;;;;5027923;28;20029;-83
2022/09/19 02:27:20;;;;;;;0.90;0.70;;;;;;;;;;5012063;28;20159;-83
2022/09/19 02:29:54;;;;;;;0.60;0.60;;;;;;;;;;5028868;28;20027;-83
2022/09/19 02:32:21;;;;;;;1.58;0.73;;;;;;;;;;5028722;28;20038;-84
2022/09/19 02:34:52;;;;;;;0.60;0.55;;;;;;;;;;5028697;28;20033;-83
2022/09/19 02:37:41;;;;;;;1.33;0.70;;;;;;;;;;5011759;28;20037;-83
2022/09/19 02:40:22;;;;;;;0.70;0.70;;;;;;;;;;5016990;28;20569;-82
2022/09/19 02:42:57;;;;;;;1.27;0.70;;;;;;;;;;5028393;28;20045;-83
2022/09/19 02:45:36;;;;;;;2.20;0.70;;;;;;;;;;5027093;28;20057;-82
2022/09/19 02:48:18;;;;;;;1.70;0.60;;;;;;;;;;5028277;28;20029;-83
2022/09/19 02:51:14;;;;;;;1.30;0.55;;;;;;;;;;5010130;28;20491;-82
2022/09/19 02:53:46;;;;;;;2.22;0.50;;;;;;;;;;5026272;28;20034;-83
2022/09/19 02:56:21;;;;;;;1.30;0.45;;;;;;;;;;5026119;28;20360;-82
2022/09/19 02:58:56;;;;;;;0.90;0.30;;;;;;;;;;5026378;28;20065;-82
2022/09/19 03:01:33;;;;;;;0.50;0.30;;;;;;;;;;5027222;28;20029;-82
2022/09/19 03:04:18;;;;;;;2.55;0.35;;;;;;;;;;5026374;28;20045;-82
2022/09/19 03:07:12;;;;;;;0.90;0.30;;;;;;;;;;5026185;28;20037;-82
2022/09/19 03:09:47;;;;;;;0.47;0.30;;;;;;;;;;5011801;28;20026;-82
2022/09/19 03:12:22;;;;;;;0.28;0.20;;;;;;;;;;5025164;28;20045;-83
2022/09/19 03:14:55;;;;;;;1.52;0.40;;;;;;;;;;5026103;28;20438;-83
2022/09/19 03:17:28;;;;;;;0.28;0.25;;;;;;;;;;5010982;28;20045;-83
2022/09/19 03:19:54;;;;;;;0.80;0.30;;;;;;;;;;5027723;28;20038;-83
2022/09/19 03:22:19;;;;;;;1.60;0.30;;;;;;;;;;5027235;28;20053;-83
2022/09/19 03:24:45;;;;;;;0.30;0.30;;;;;;;;;;5027092;28;20048;-82
2022/09/19 03:27:10;;;;;;;0.52;0.20;;;;;;;;;;5027886;28;20041;-82
2022/09/19 03:29:37;;;;;;;0.10;0.10;;;;;;;;;;5027731;28;20053;-83
2022/09/19 03:32:03;;;;;;;0.30;0.30;;;;;;;;;;5027485;28;20034;-82
2022/09/19 03:34:32;;;;;;;0.47;0.10;;;;;;;;;;5026683;28;20025;-82
2022/09/19 03:36:59;;;;;;;0.28;0.15;;;;;;;;;;5028322;28;20034;-83
2022/09/19 03:39:27;;;;;;;0.10;0.10;;;;;;;;;;5027570;28;20030;-83
2022/09/19 03:41:54;;;;;;;0.20;0.20;;;;;;;;;;5010640;28;20030;-83
2022/09/19 03:44:20;;;;;;;0.70;0.40;;;;;;;;;;5026855;28;20039;-83
2022/09/19 03:46:46;;;;;;;0.68;0.30;;;;;;;;;;5028446;28;20026;-82
2022/09/19 03:49:12;;;;;;;0.40;0.35;;;;;;;;;;5027340;28;20101;-83
2022/09/19 03:51:39;;;;;;;2.22;0.60;;;;;;;;;;5027614;28;20037;-83
2022/09/19 03:54:07;;;;;;;1.05;0.60;;;;;;;;;;5026445;28;20040;-83
2022/09/19 03:56:40;;;;;;;0.40;0.38;;;;;;;;;;5027474;28;20038;-83
2022/09/19 03:59:07;;;;;;;0.40;0.40;;;;;;;;;;5027418;28;20045;-82
2022/09/19 04:01:35;;;;;;;0.30;0.30;;;;;;;;;;5026636;28;20041;-83
2022/09/19 04:04:01;;;;;;;0.28;0.25;;;;;;;;;;5026850;28;20038;-82
2022/09/19 04:06:27;;;;;;;1.75;0.60;;;;;;;;;;5027334;28;20038;-83
2022/09/19 04:08:52;;;;;;;0.57;0.40;;;;;;;;;;5026353;28;20038;-82
2022/09/19 04:11:21;;;;;;;1.20;0.90;;;;;;;;;;5026349;28;20040;-83
2022/09/19 04:13:50;;;;;;;3.42;2.03;;;;;;;;;;5027227;28;20045;-82
2022/09/19 04:16:19;;;;;;;1.02;0.80;;;;;;;;;;5025916;28;20037;-83
2022/09/19 04:18:50;;;;;;;0.80;0.70;;;;;;;;;;5026939;28;20057;-84
2022/09/19 04:21:36;;;;;;;1.20;0.90;;;;;;;;;;5027557;28;20038;-82
2022/09/19 04:24:21;;;;;;;1.88;0.68;;;;;;;;;;5027348;28;20109;-83
2022/09/19 04:27:06;;;;;;;0.93;0.70;;;;;;;;;;5027309;28;20029;-83
2022/09/19 04:29:33;;;;;;;2.08;0.70;;;;;;;;;;5026702;28;20058;-83
2022/09/19 04:32:02;;;;;;;1.08;0.70;;;;;;;;;;5009461;28;20109;-83
2022/09/19 04:34:29;;;;;;;1.50;0.70;;;;;;;;;;5025879;28;20075;-83
2022/09/19 04:36:56;;;;;;;2.05;0.70;;;;;;;;;;5026301;28;20097;-82
2022/09/19 04:39:22;;;;;;;2.85;0.88;;;;;;;;;;5026185;28;20029;-83
2022/09/19 04:41:52;;;;;;;2.58;1.10;;;;;;;;;;5026323;28;20073;-83
2022/09/19 04:44:20;;;;;;;1.55;1.00;;;;;;;;;;5024879;28;20053;-82
2022/09/19 04:46:56;;;;;;;1.02;0.80;;;;;;;;;;5011155;28;20125;-82
2022/09/19 04:49:22;;;;;;;1.60;0.75;;;;;;;;;;5026819;28;20056;-83
2022/09/19 04:51:48;;;;;;;4.45;0.70;;;;;;;;;;5027352;28;20101;-81
2022/09/19 04:54:14;;;;;;;2.95;0.65;;;;;;;;;;5009224;28;20049;-83
2022/09/19 04:56:45;;;;;;;1.27;0.70;;;;;;;;;;5026675;28;20478;-82
2022/09/19 04:59:11;;;;;;;1.13;0.80;;;;;;;;;;5025601;28;20463;-83
2022/09/19 05:01:38;;;;;;;3.25;0.80;;;;;;;;;;5009454;28;20052;-82
2022/09/19 05:04:04;;;;;;;1.95;0.68;;;;;;;;;;5026198;28;20482;-83
2022/09/19 05:06:31;;;;;;;1.67;0.70;;;;;;;;;;5026116;28;20029;-82
2022/09/19 05:09:00;;;;;;;3.25;0.95;;;;;;;;;;5026357;28;20041;-83
2022/09/19 05:11:42;;;;;;;4.50;0.75;;;;;;;;;;5010125;28;20036;-82
2022/09/19 05:14:09;;;;;;;3.60;0.88;;;;;;;;;;5009560;28;20149;-82
2022/09/19 05:16:38;;;;;;;5.65;1.02;;;;;;;;;;5010385;28;20033;-82
2022/09/19 05:19:05;;;;;;;3.95;1.00;;;;;;;;;;5025621;28;20030;-83
2022/09/19 05:21:30;;;;;;;2.95;0.65;;;;;;;;;;5026571;28;20033;-82
2022/09/19 05:23:58;;;;;;;5.90;0.70;;;;;;;;;;5026114;28;20046;-81
2022/09/19 05:26:23;;;;;;;2.53;0.90;;;;;;;;;;5025930;28;20541;-82
2022/09/19 05:28:53;;;;;;;3.63;0.65;;;;;;;;;;5027767;28;20022;-82
2022/09/19 05:31:21;;;;;;;7.28;1.20;;;;;;;;;;5025508;28;20033;-82
2022/09/19 05:34:00;;;;;;;4.07;0.80;;;;;;;;;;5025274;28;20045;-82
2022/09/19 05:36:27;;;;;;;6.78;0.80;;;;;;;;;;5026301;28;20033;-81
2022/09/19 05:39:02;;;;;;;4.70;0.80;;;;;;;;;;5027429;28;20125;-82
2022/09/19 05:41:55;;;;;;;6.47;0.85;;;;;;;;;;5013732;28;20033;-82
2022/09/19 05:44:22;;;;;;;6.45;0.80;;;;;;;;;;5028911;28;20030;-82
2022/09/19 05:46:55;;;;;;;3.47;1.00;;;;;;;;;;5030185;28;20029;-82
2022/09/19 05:49:21;;;;;;;3.80;0.68;;;;;;;;;;5030291;28;20030;-82
2022/09/19 05:51:46;;;;;;;5.65;1.20;;;;;;;;;;5030945;28;20036;-82
2022/09/19 05:54:18;;;;;;;6.13;1.00;;;;;;;;;;5008823;28;20045;-81
2022/09/19 05:56:53;;;;;;;3.85;0.90;;;;;;;;;;5008653;28;20034;-83
2022/09/19 05:59:20;;;;;;;6.38;1.10;;;;;;;;;;5009448;28;20094;-82
2022/09/19 06:01:47;;;;;;;3.70;0.70;;;;;;;;;;5009327;28;20031;-83
2022/09/19 06:04:38;;;;;;;6.40;1.08;;;;;;;;;;5007408;28;20094;-83
2022/09/19 06:07:04;;;;;;;7.72;0.90;;;;;;;;;;5009065;28;20069;-84
2022/09/19 06:09:30;;;;;;;5.80;1.17;;;;;;;;;;4993726;28;20041;-83
2022/09/19 06:11:58;;;;;;;4.63;1.10;;;;;;;;;;4991723;28;20061;-83
2022/09/19 06:14:27;;;;;;;6.20;1.00;;;;;;;;;;5008106;28;20442;-84
2022/09/19 06:16:54;;;;;;;5.60;1.17;;;;;;;;;;5008668;28;20030;-83
2022/09/19 06:19:47;;;;;;;8.55;1.10;;;;;;;;;;5010767;28;20042;-83
2022/09/19 06:22:22;;;;;;;3.83;0.70;;;;;;;;;;5007944;28;20041;-83
2022/09/19 06:24:50;;;;;;;4.57;1.20;;;;;;;;;;5007077;28;20041;-84
2022/09/19 06:27:16;;;;;;;7.80;1.15;;;;;;;;;;5007368;28;20030;-83
2022/09/19 06:29:44;;;;;;;4.35;0.90;;;;;;;;;;5007671;28;20022;-83
2022/09/19 06:32:38;;;;;;;7.93;0.93;;;;;;;;;;5008841;28;20030;-83
2022/09/19 06:35:10;;;;;;;3.45;0.70;;;;;;;;;;4992164;28;20026;-82
2022/09/19 06:37:37;;;;;;;5.90;1.20;;;;;;;;;;5012863;28;20093;-83
2022/09/19 06:40:05;;;;;;;4.18;0.98;;;;;;;;;;5025133;28;20109;-82
2022/09/19 06:43:02;;;;;;;7.78;1.00;;;;;;;;;;5018013;28;20061;-83
2022/09/19 06:45:40;;;;;;;4.55;0.93;;;;;;;;;;5017176;28;20475;-83
2022/09/19 06:48:35;;;;;;;4.78;0.98;;;;;;;;;;5015815;28;20491;-81
2022/09/19 06:51:19;;;;;;;5.60;1.15;;;;;;;;;;5016890;28;20036;-80
2022/09/19 06:53:47;;;;;;;2.78;0.80;;;;;;;;;;5011404;28;20069;-84
2022/09/19 06:56:13;;;;;;;5.93;1.20;;;;;;;;;;5002319;28;20038;-83
2022/09/19 06:58:39;;;;;;;7.40;1.08;;;;;;;;;;4998218;28;20037;-83
2022/09/19 07:01:05;;;;;;;8.05;1.10;;;;;;;;;;4997651;28;20034;-82
2022/09/19 07:03:34;;;;;;;6.00;1.00;;;;;;;;;;4997928;28;20049;-83
2022/09/19 07:06:01;;;;;;;3.30;1.02;;;;;;;;;;4997660;28;20058;-83
2022/09/19 07:08:33;;;;;;;4.63;1.00;;;;;;;;;;4983407;28;20033;-83
2022/09/19 07:11:01;;;;;;;7.30;1.20;;;;;;;;;;4997317;28;20461;-83
2022/09/19 07:13:28;;;;;;;8.57;1.00;;;;;;;;;;4982154;28;20426;-83
2022/09/19 07:16:00;;;;;;;4.72;1.23;;;;;;;;;;4981332;28;20026;-83
2022/09/19 07:18:25;;;;;;;4.20;0.90;;;;;;;;;;4997780;28;20057;-84
2022/09/19 07:20:52;;;;;;;5.22;0.75;;;;;;;;;;4982122;28;20100;-84
2022/09/19 07:23:22;;;;;;;6.18;1.00;;;;;;;;;;4999485;28;20014;-84
2022/09/19 07:25:56;;;;;;;5.60;1.02;;;;;;;;;;4997578;28;20557;-84
2022/09/19 07:28:22;;;;;;;7.60;1.05;;;;;;;;;;4998065;28;20057;-84
2022/09/19 07:30:50;;;;;;;7.15;1.13;;;;;;;;;;4999153;28;20030;-83
2022/09/19 07:33:17;;;;;;;7.82;1.20;;;;;;;;;;5000728;28;20037;-83
2022/09/19 07:35:43;;;;;;;6.18;0.80;;;;;;;;;;5005580;28;20030;-84
2022/09/19 07:38:12;;;;;;;4.63;0.90;;;;;;;;;;5004115;28;20030;-83
2022/09/19 07:41:01;;;;;;;6.85;0.90;;;;;;;;;;4989969;28;20066;-86
2022/09/19 07:43:49;;;;;;;11.02;1.20;;;;;;;;;;5000493;28;20057;-84
2022/09/19 07:46:32;;;;;;;5.75;0.77;;;;;;;;;;5008853;28;20088;-85
2022/09/19 07:49:04;;;;;;;6.70;1.05;;;;;;;;;;5009082;28;20041;-85
2022/09/19 07:51:52;;;;;;;6.00;0.98;;;;;;;;;;5002076;28;20373;-84
2022/09/19 07:54:18;;;;;;;8.57;1.08;;;;;;;;;;5006098;28;20042;-84
2022/09/19 07:56:47;;;;;;;3.80;0.90;;;;;;;;;;5006573;28;20506;-84
2022/09/19 07:59:13;;;;;;;7.70;1.00;;;;;;;;;;5011850;28;20049;-84
2022/09/19 08:01:59;;;;;;;5.90;0.90;;;;;;;;;;5016976;28;20049;-84
2022/09/19 08:04:38;;;;;;;6.57;0.93;;;;;;;;;;5016600;28;20033;-84
2022/09/19 08:07:04;;;;;;;5.38;0.90;;;;;;;;;;5000851;28;20080;-85
2022/09/19 08:09:30;;;;;;;4.78;1.00;;;;;;;;;;5017186;28;20037;-85
2022/09/19 08:12:05;;;;;;;6.93;1.25;;;;;;;;;;5016770;28;20083;-86
2022/09/19 08:14:34;;;;;;;3.22;0.70;;;;;;;;;;5015885;28;20040;-86
2022/09/19 08:17:01;;;;;;;3.47;1.05;;;;;;;;;;5000641;28;20022;-86
2022/09/19 08:19:28;;;;;;;6.80;0.80;;;;;;;;;;5016311;28;20092;-86
2022/09/19 08:21:56;;;;;;;4.82;0.95;;;;;;;;;;5016827;28;20033;-86
2022/09/19 08:24:22;;;;;;;3.58;0.60;;;;;;;;;;5015554;28;20024;-86
2022/09/19 08:26:58;;;;;;;5.95;1.15;;;;;;;;;;5073754;28;20375;-86
2022/09/19 08:29:26;;;;;;;7.03;0.90;;;;;;;;;;5072337;28;20036;-86
2022/09/19 08:32:00;;;;;;;5.63;0.90;;;;;;;;;;5072429;28;20497;-85
2022/09/19 08:34:26;;;;;;;5.20;0.90;;;;;;;;;;5071257;28;20080;-85
2022/09/19 08:36:58;;;;;;;3.45;0.80;;;;;;;;;;5072595;28;20013;-86
2022/09/19 08:39:25;;;;;;;3.60;0.85;;;;;;;;;;5072739;28;20025;-85
2022/09/19 08:42:06;;;;;;;5.53;0.73;;;;;;;;;;5072825;28;20025;-85
2022/09/19 08:44:38;;;;;;;4.07;0.90;;;;;;;;;;5071434;28;20129;-85
2022/09/19 08:47:12;;;;;;;3.47;0.70;;;;;;;;;;5055627;28;20128;-85
2022/09/19 08:49:50;;;;;;;4.68;0.80;;;;;;;;;;5072542;28;20449;-85
2022/09/19 08:52:36;;;;;;;3.22;0.63;;;;;;;;;;5072114;28;20032;-85
2022/09/19 08:55:06;;;;;;;1.55;0.50;;;;;;;;;;5071045;28;20032;-86
2022/09/19 08:57:44;;;;;;;4.88;0.70;;;;;;;;;;5071651;28;20033;-86
2022/09/19 09:00:17;;;;;;;8.13;1.98;;;;;;;;;;5056007;28;20483;-86
2022/09/19 09:02:50;;;;;;;7.40;1.10;;;;;;;;;;5071442;28;20401;-86
2022/09/19 09:05:52;;;;;;;4.88;0.90;;;;;;;;;;5071185;28;20473;-85
2022/09/19 09:08:40;;;;;;;4.32;0.60;;;;;;;;;;5065124;28;20105;-86
2022/09/19 09:11:18;;;;;;;3.90;0.73;;;;;;;;;;5054402;28;20024;-85
2022/09/19 09:14:08;;;;;;;3.40;0.65;;;;;;;;;;5071269;28;20048;-85
2022/09/19 09:16:53;;;;;;;2.72;0.68;;;;;;;;;;5071113;28;20021;-86
2022/09/19 09:19:26;;;;;;;2.20;0.40;;;;;;;;;;5071384;28;20054;-85
2022/09/19 09:22:19;;;;;;;3.08;0.68;;;;;;;;;;5071404;28;20497;-85
2022/09/19 09:25:02;;;;;;;4.28;0.80;;;;;;;;;;5070309;28;20098;-85
2022/09/19 09:27:56;;;;;;;4.60;0.63;;;;;;;;;;5071334;28;20033;-85
2022/09/19 09:30:28;;;;;;;4.05;1.10;;;;;;;;;;5071163;28;20032;-86
2022/09/19 09:33:24;;;;;;;5.35;0.85;;;;;;;;;;5055235;28;20033;-85
2022/09/19 09:35:59;;;;;;;1.70;0.52;;;;;;;;;;5070332;28;20048;-86
2022/09/19 09:38:33;;;;;;;2.28;0.50;;;;;;;;;;5057344;28;20032;-86
2022/09/19 09:44:03;;;;;;;2.75;0.60;;;;;;;;;;5057378;28;20035;-85
2022/09/19 09:46:50;;;;;;;4.15;0.70;;;;;;;;;;5057632;28;20029;-85
2022/09/19 09:49:21;;;;;;;3.47;0.90;;;;;;;;;;5058711;28;20032;-86
2022/09/19 09:52:06;;;;;;;3.15;0.82;;;;;;;;;;5041234;28;20481;-86
2022/09/19 09:57:43;;;;;;;4.18;1.20;;;;;;;;;;5057312;28;20039;-86
2022/09/19 10:03:34;;;;;;;3.58;1.20;;;;;;;;;;5043684;28;20035;-86
2022/09/19 10:06:19;;;;;;;2.30;0.60;;;;;;;;;;5056522;28;20033;-86
2022/09/19 10:08:58;;;;;;;1.70;0.60;;;;;;;;;;5057582;28;20029;-86
2022/09/19 10:11:42;;;;;;;3.25;1.13;;;;;;;;;;5057465;28;20025;-86
2022/09/19 10:14:20;;;;;;;2.15;0.63;;;;;;;;;;5057728;28;20048;-86
2022/09/19 10:16:52;;;;;;;2.15;0.50;;;;;;;;;;5057364;28;20035;-86
2022/09/19 10:19:52;;;;;;;0.75;0.40;;;;;;;;;;5056882;28;20028;-86
2022/09/19 10:22:19;;;;;;;2.38;0.35;;;;;;;;;;5037370;28;20048;-86
2022/09/19 10:24:59;;;;;;;2.53;0.50;;;;;;;;;;5056048;28;20027;-86
2022/09/19 10:27:33;;;;;;;2.25;0.30;;;;;;;;;;5041108;28;20040;-86
2022/09/19 10:30:25;;;;;;;2.97;0.43;;;;;;;;;;5056996;28;20032;-86
2022/09/19 10:32:54;;;;;;;1.27;0.60;;;;;;;;;;5039774;28;20086;-86
2022/09/19 10:35:37;;;;;;;1.45;0.60;;;;;;;;;;5056355;28;20033;-86
2022/09/19 10:38:13;;;;;;;1.65;0.57;;;;;;;;;;5056965;28;20489;-85
2022/09/19 10:40:56;;;;;;;0.88;0.40;;;;;;;;;;5057075;28;20084;-84
2022/09/19 10:43:39;;;;;;;4.10;1.10;;;;;;;;;;5056334;28;20123;-88
2022/09/19 10:46:07;;;;;;;2.00;0.60;;;;;;;;;;5055176;28;20047;-84
2022/09/19 10:48:39;;;;;;;2.22;0.57;;;;;;;;;;5054825;28;20037;-84
2022/09/19 10:51:08;;;;;;;2.25;0.60;;;;;;;;;;5055159;28;20431;-84
2022/09/19 10:53:36;;;;;;;0.50;0.35;;;;;;;;;;5054868;28;20489;-84
2022/09/19 10:56:07;;;;;;;2.65;0.90;;;;;;;;;;5054071;28;20033;-84
2022/09/19 10:58:40;;;;;;;3.33;1.30;;;;;;;;;;5055213;28;20059;-84
2022/09/19 11:01:22;;;;;;;5.32;1.80;;;;;;;;;;5055112;28;20036;-84
2022/09/19 11:04:05;;;;;;;2.72;0.98;;;;;;;;;;5054386;28;20477;-82
2022/09/19 11:06:32;;;;;;;1.88;0.77;;;;;;;;;;5055258;28;20072;-84
2022/09/19 11:09:00;;;;;;;2.35;0.65;;;;;;;;;;5054712;28;20035;-84
2022/09/19 11:11:45;;;;;;;1.77;0.63;;;;;;;;;;5053607;28;20139;-84
2022/09/19 11:14:18;;;;;;;3.45;0.80;;;;;;;;;;5054369;28;20032;-84
2022/09/19 11:17:00;;;;;;;1.83;0.60;;;;;;;;;;5054363;28;20055;-85
2022/09/19 11:19:46;;;;;;;3.63;0.90;;;;;;;;;;5054118;28;20032;-84
2022/09/19 11:22:18;;;;;;;2.30;0.70;;;;;;;;;;5054995;28;20048;-84
2022/09/19 11:25:06;;;;;;;2.13;0.43;;;;;;;;;;5037247;28;20028;-84
2022/09/19 11:27:51;;;;;;;2.28;0.70;;;;;;;;;;5054279;28;20059;-84
2022/09/19 11:30:24;;;;;;;2.08;0.47;;;;;;;;;;5055331;28;20075;-83
2022/09/19 11:33:00;;;;;;;2.03;0.60;;;;;;;;;;5037727;28;20393;-84
2022/09/19 11:36:27;;;;;;;1.27;0.50;;;;;;;;;;5031982;28;20108;-83
2022/09/19 11:39:05;;;;;;;2.15;0.50;;;;;;;;;;5016490;28;20079;-83
2022/09/19 11:41:56;;;;;;;0.85;0.30;;;;;;;;;;5038554;28;20388;-84
2022/09/19 11:44:33;;;;;;;1.40;0.52;;;;;;;;;;5044912;28;20024;-84
2022/09/19 11:47:24;;;;;;;3.53;1.60;;;;;;;;;;5053377;28;20025;-85
2022/09/19 11:50:04;;;;;;;1.02;0.40;;;;;;;;;;5053914;28;20040;-83
2022/09/19 11:53:05;;;;;;;1.00;0.47;;;;;;;;;;5053658;28;20085;-84
2022/09/19 11:55:47;;;;;;;2.15;0.60;;;;;;;;;;5053003;28;20025;-84
2022/09/19 11:58:59;;;;;;;0.52;0.40;;;;;;;;;;5055483;28;20388;-85
2022/09/19 12:01:53;;;;;;;1.60;0.40;;;;;;;;;;5017188;28;20173;-84
2022/09/19 12:04:23;;;;;;;2.58;0.50;;;;;;;;;;5016024;28;20029;-84
2022/09/19 12:07:26;;;;;;;4.18;0.65;;;;;;;;;;5041582;28;20037;-85
2022/09/19 12:10:03;;;;;;;1.60;0.88;;;;;;;;;;5056549;28;20037;-85
2022/09/19 12:12:36;;;;;;;1.70;0.60;;;;;;;;;;5055697;28;20037;-85
2022/09/19 12:15:30;;;;;;;0.75;0.50;;;;;;;;;;5055212;28;20048;-85
2022/09/19 12:18:10;;;;;;;1.90;0.55;;;;;;;;;;5056387;28;20021;-85
2022/09/19 12:20:46;;;;;;;2.70;0.52;;;;;;;;;;5056326;28;20048;-85
2022/09/19 12:26:34;;;;;;;1.47;0.70;;;;;;;;;;5055901;28;20025;-85
2022/09/19 12:29:12;;;;;;;3.00;0.80;;;;;;;;;;5056907;28;20279;-85
2022/09/19 12:31:41;;;;;;;1.65;0.60;;;;;;;;;;5056309;28;20028;-85
2022/09/19 12:34:47;;;;;;;1.63;0.60;;;;;;;;;;5055364;28;20017;-85
2022/09/19 12:37:25;;;;;;;1.52;0.65;;;;;;;;;;5045783;28;20036;-85
2022/09/19 12:40:03;;;;;;;2.63;0.70;;;;;;;;;;5056956;28;20094;-85
2022/09/19 12:42:57;;;;;;;2.97;0.70;;;;;;;;;;5040413;28;20033;-86
2022/09/19 12:45:44;;;;;;;1.27;0.60;;;;;;;;;;5056099;28;20044;-85
2022/09/19 12:48:47;;;;;;;3.67;0.47;;;;;;;;;;5052642;28;20382;-82
2022/09/19 12:52:00;;;;;;;2.08;0.70;;;;;;;;;;5031921;28;20030;-86
2022/09/19 12:54:29;;;;;;;2.33;0.82;;;;;;;;;;5045415;28;20059;-83
2022/09/19 12:56:58;;;;;;;1.15;0.40;;;;;;;;;;5056257;28;20025;-86
2022/09/19 12:59:24;;;;;;;1.25;0.38;;;;;;;;;;5061336;28;20163;-87
2022/09/19 13:01:59;;;;;;;0.60;0.40;;;;;;;;;;5063299;28;20021;-87
2022/09/19 13:04:47;;;;;;;3.05;0.70;;;;;;;;;;5061771;28;20033;-85
2022/09/19 13:07:34;;;;;;;3.08;1.15;;;;;;;;;;5059368;28;20048;-86
2022/09/19 13:10:21;;;;;;;1.50;0.60;;;;;;;;;;5057975;28;20051;-86
2022/09/19 13:12:51;;;;;;;1.23;0.70;;;;;;;;;;5057809;28;20029;-86
2022/09/19 13:15:40;;;;;;;2.63;0.52;;;;;;;;;;5043738;28;20048;-86
2022/09/19 13:23:45;;;;;;;0.93;0.47;;;;;;;;;;5061589;28;20064;-85
2022/09/19 13:26:16;;;;;;;2.28;0.30;;;;;;;;;;5060729;28;20036;-85
2022/09/19 13:28:51;;;;;;;1.40;0.50;;;;;;;;;;5060659;28;20120;-85
2022/09/19 13:31:18;;;;;;;0.70;0.60;;;;;;;;;;5060537;28;20029;-84
2022/09/19 13:33:50;;;;;;;2.75;0.70;;;;;;;;;;5059869;28;20060;-86
2022/09/19 13:36:36;;;;;;;1.95;0.50;;;;;;;;;;5058984;28;20029;-87
2022/09/19 13:39:04;;;;;;;3.95;1.50;;;;;;;;;;5060481;28;20098;-88
2022/09/19 13:41:53;;;;;;;0.52;0.40;;;;;;;;;;5062011;28;20108;-86
2022/09/19 13:44:30;;;;;;;1.65;0.30;;;;;;;;;;5067271;28;20041;-86
2022/09/19 13:47:08;;;;;;;3.35;0.60;;;;;;;;;;5067294;28;20165;-86
2022/09/19 13:49:47;;;;;;;1.02;0.60;;;;;;;;;;5068517;28;20507;-86
2022/09/19 13:52:26;;;;;;;3.88;0.90;;;;;;;;;;5067772;28;20048;-86
2022/09/19 13:54:52;;;;;;;2.85;1.20;;;;;;;;;;5067974;28;20048;-85
2022/09/19 13:57:26;;;;;;;4.43;0.98;;;;;;;;;;5067695;28;20028;-86
2022/09/19 14:00:00;;;;;;;1.02;0.50;;;;;;;;;;5066643;28;20033;-86
2022/09/19 14:02:41;;;;;;;0.80;0.50;;;;;;;;;;5063268;28;20028;-86
2022/09/19 14:05:10;;;;;;;2.58;0.80;;;;;;;;;;5061323;28;20346;-86
2022/09/19 14:08:03;;;;;;;1.92;0.70;;;;;;;;;;5046697;28;20024;-86
2022/09/19 14:10:48;;;;;;;1.73;0.63;;;;;;;;;;5064154;28;20048;-85
2022/09/19 14:13:20;;;;;;;1.90;0.60;;;;;;;;;;5068032;28;20032;-86
2022/09/19 14:16:05;;;;;;;3.65;0.80;;;;;;;;;;5067914;28;20115;-85
2022/09/19 14:18:36;;;;;;;1.02;0.55;;;;;;;;;;5068425;28;20060;-86
2022/09/19 14:21:34;;;;;;;2.05;0.70;;;;;;;;;;5068122;28;20029;-86
2022/09/19 14:24:11;;;;;;;1.50;0.40;;;;;;;;;;5067199;28;20028;-86
2022/09/19 14:26:58;;;;;;;1.45;0.65;;;;;;;;;;5067927;28;20097;-85
2022/09/19 14:29:31;;;;;;;1.65;0.45;;;;;;;;;;5067787;28;20037;-86
2022/09/19 14:32:25;;;;;;;1.83;0.68;;;;;;;;;;5067663;28;20104;-86
2022/09/19 14:35:09;;;;;;;1.13;0.47;;;;;;;;;;5065652;28;20504;-86
2022/09/19 14:37:46;;;;;;;;;;;;;;;;;;5067174;28;20037;-85
2022/09/19 14:40:40;;;;;;;10.65;4.68;;;;;;;;;;5050703;28;19916;-87
2022/09/19 14:43:44;;;;;;;1.35;0.70;;;;;;;;;;5067236;28;20218;-86
2022/09/19 14:46:21;;;;;;;2.30;0.68;;;;;;;;;;5049263;28;20033;-86
2022/09/19 14:48:50;;;;;;;1.65;0.90;;;;;;;;;;5065898;28;20085;-87
2022/09/19 14:51:46;;;;;;;3.50;0.80;;;;;;;;;;5065710;28;20025;-86
2022/09/19 14:54:38;;;;;;;2.80;0.70;;;;;;;;;;5065860;28;20041;-86
2022/09/19 14:57:06;;;;;;;2.20;0.60;;;;;;;;;;5065024;28;20040;-86
2022/09/19 14:59:35;;;;;;;1.33;0.60;;;;;;;;;;5065226;28;20033;-87
2022/09/19 15:02:19;;;;;;;2.28;0.68;;;;;;;;;;5065513;28;20452;-87
2022/09/19 15:04:51;;;;;;;1.08;0.80;;;;;;;;;;5064601;28;20101;-86
2022/09/19 15:07:18;;;;;;;2.40;0.88;;;;;;;;;;5065492;28;20048;-87
2022/09/19 15:09:43;;;;;;;1.95;0.75;;;;;;;;;;5066418;28;20032;-88
2022/09/19 15:12:15;;;;;;;1.58;1.00;;;;;;;;;;5066622;28;20028;-86
2022/09/19 15:14:49;;;;;;;2.67;0.93;;;;;;;;;;5066924;28;20041;-87
2022/09/19 15:17:14;;;;;;;;;;;;;;;;;;5066845;28;20033;-87
2022/09/19 15:19:48;;;;;;;4.25;1.35;;;;;;;;;;5065950;28;20360;-85
2022/09/19 15:22:36;;;;;;;4.47;1.30;;;;;;;;;;5066721;28;20033;-84
2022/09/19 15:25:15;;;;;;;2.38;1.30;;;;;;;;;;5066861;28;20115;-86
2022/09/19 15:27:53;;;;;;;3.90;1.25;;;;;;;;;;5067405;28;20036;-86
2022/09/19 15:30:25;;;;;;;2.13;0.77;;;;;;;;;;5066645;28;20370;-86
2022/09/19 15:32:53;;;;;;;9.57;4.13;;;;;;;;;;5066677;28;20101;-85
2022/09/19 15:35:20;;;;;;;10.48;5.72;;;;;;;;;;5066609;28;20431;-86
2022/09/19 15:37:48;;;;;;;3.17;1.40;;;;;;;;;;5066835;28;20020;-86
2022/09/19 15:40:21;;;;;;;1.20;0.55;;;;;;;;;;5066601;28;20048;-84
2022/09/19 15:42:47;;;;;;;5.13;0.70;;;;;;;;;;5063013;28;20037;-86
2022/09/19 15:45:43;;;;;;;2.33;0.90;;;;;;;;;;5063574;28;20025;-87
2022/09/19 15:48:33;;;;;;;1.33;0.80;;;;;;;;;;5064462;28;20090;-86
2022/09/19 15:51:02;;;;;;;4.47;0.77;;;;;;;;;;5063648;28;20040;-86